createdAt,value
2018-05-29T00:02:22.561Z,14.73
2018-05-29T00:04:50.198Z,14.60
2018-05-29T00:07:17.789Z,15.20
2018-05-29T00:09:45.427Z,16.63
2018-05-29T00:12:13.092Z,17.33
2018-05-29T00:14:40.686Z,17.13
2018-05-29T00:17:09.791Z,18.03
2018-05-29T00:19:38.206Z,18.20
2018-05-29T00:22:09.416Z,18.03
2018-05-29T00:24:37.042Z,17.07
2018-05-29T00:27:04.666Z,13.33
2018-05-29T00:29:32.283Z,12.73
2018-05-29T00:31:59.973Z,14.20
2018-05-29T00:34:28.378Z,14.97
2018-05-29T00:36:56.032Z,14.60
2018-05-29T00:39:23.651Z,15.47
2018-05-29T00:41:51.486Z,17.30
2018-05-29T00:44:19.062Z,17.70
2018-05-29T00:46:46.686Z,19.80
2018-05-29T00:49:14.286Z,16.10
2018-05-29T00:51:41.902Z,16.13
2018-05-29T00:54:09.502Z,15.93
2018-05-29T00:56:37.070Z,16.40
2018-05-29T00:59:04.675Z,17.90
2018-05-29T01:01:32.286Z,16.90
2018-05-29T01:03:59.900Z,16.73
2018-05-29T01:06:28.272Z,16.37
2018-05-29T01:08:55.875Z,17.17
2018-05-29T01:11:23.486Z,17.83
2018-05-29T01:13:58.073Z,16.90
2018-05-29T01:16:25.678Z,15.83
2018-05-29T01:18:54.084Z,15.50
2018-05-29T01:21:21.718Z,14.40
2018-05-29T01:23:50.143Z,14.33
2018-05-29T01:26:17.728Z,15.90
2018-05-29T01:28:45.350Z,16.00
2018-05-29T01:31:12.917Z,17.27
2018-05-29T01:33:40.585Z,14.83
2018-05-29T01:36:08.202Z,16.70
2018-05-29T01:38:36.561Z,16.97
2018-05-29T01:41:04.146Z,17.53
2018-05-29T01:43:31.735Z,16.47
2018-05-29T01:45:59.341Z,17.57
2018-05-29T01:48:26.930Z,16.50
2018-05-29T01:50:54.539Z,16.17
2018-05-29T01:53:22.177Z,15.90
2018-05-29T01:55:49.793Z,15.57
2018-05-29T01:58:18.159Z,17.00
2018-05-29T02:00:45.835Z,16.07
2018-05-29T02:03:13.455Z,17.20
2018-05-29T02:05:41.101Z,17.27
2018-05-29T02:08:09.695Z,17.47
2018-05-29T02:10:37.277Z,18.87
2018-05-29T02:13:04.921Z,18.30
2018-05-29T02:15:32.528Z,15.40
2018-05-29T02:18:00.911Z,17.70
2018-05-29T02:20:29.321Z,18.60
2018-05-29T02:22:56.919Z,17.70
2018-05-29T02:25:24.498Z,16.83
2018-05-29T02:27:52.893Z,17.53
2018-05-29T02:30:20.515Z,15.13
2018-05-29T02:32:48.125Z,15.33
2018-05-29T02:35:15.711Z,16.30
2018-05-29T02:37:43.327Z,18.00
2018-05-29T02:40:11.682Z,16.70
2018-05-29T02:42:39.318Z,19.47
2018-05-29T02:45:06.959Z,25.20
2018-05-29T02:47:34.531Z,22.37
2018-05-29T02:50:02.157Z,24.03
2018-05-29T02:52:29.781Z,22.20
2018-05-29T02:54:57.435Z,20.53
2018-05-29T02:57:25.049Z,21.03
2018-05-29T02:59:52.659Z,18.43
2018-05-29T03:02:20.235Z,20.93
2018-05-29T03:04:47.793Z,19.87
2018-05-29T03:07:15.391Z,20.90
2018-05-29T03:09:43.027Z,20.43
2018-05-29T03:12:11.576Z,21.37
2018-05-29T03:14:39.142Z,20.17
2018-05-29T03:17:06.783Z,18.30
2018-05-29T03:19:34.393Z,18.33
2018-05-29T03:22:01.989Z,17.50
2018-05-29T03:24:29.613Z,19.33
2018-05-29T03:26:57.229Z,21.70
2018-05-29T03:29:24.817Z,20.33
2018-05-29T03:32:05.963Z,19.83
2018-05-29T03:34:33.575Z,21.10
2018-05-29T03:37:01.169Z,18.97
2018-05-29T03:39:28.745Z,21.33
2018-05-29T03:41:56.372Z,25.27
2018-05-29T03:44:24.761Z,24.87
2018-05-29T03:46:52.367Z,25.50
2018-05-29T03:49:20.006Z,25.40
2018-05-29T03:51:47.641Z,25.10
2018-05-29T03:54:16.029Z,24.30
2018-05-29T03:56:43.669Z,24.83
2018-05-29T03:59:12.064Z,26.37
2018-05-29T04:01:40.409Z,25.67
2018-05-29T04:04:08.022Z,25.20
2018-05-29T04:06:35.581Z,25.43
2018-05-29T04:09:04.074Z,25.43
2018-05-29T04:11:31.703Z,24.80
2018-05-29T04:13:59.317Z,19.00
2018-05-29T04:16:26.925Z,20.20
2018-05-29T04:18:55.311Z,18.77
2018-05-29T04:21:22.932Z,21.97
2018-05-29T04:23:50.544Z,21.40
2018-05-29T04:26:18.187Z,22.57
2018-05-29T04:28:45.829Z,22.17
2018-05-29T04:31:26.661Z,23.83
2018-05-29T04:33:54.275Z,22.87
2018-05-29T04:36:21.970Z,21.80
2018-05-29T04:38:49.575Z,20.07
2018-05-29T04:41:17.946Z,17.60
2018-05-29T04:43:45.633Z,15.13
2018-05-29T04:46:13.223Z,15.43
2018-05-29T04:48:50.849Z,15.60
2018-05-29T04:51:18.498Z,17.03
2018-05-29T04:53:46.090Z,14.67
2018-05-29T04:56:13.724Z,15.50
2018-05-29T04:58:45.618Z,17.85
2018-05-29T05:01:13.723Z,18.60
2018-05-29T05:03:41.360Z,17.45
2018-05-29T05:06:08.958Z,18.83
2018-05-29T05:08:36.584Z,17.60
2018-05-29T05:11:05.000Z,15.75
2018-05-29T05:13:32.632Z,15.18
2018-05-29T05:16:04.176Z,15.70
2018-05-29T05:18:31.774Z,15.07
2018-05-29T05:20:59.370Z,17.85
2018-05-29T05:23:26.994Z,16.50
2018-05-29T05:25:54.590Z,16.70
2018-05-29T05:28:22.204Z,14.80
2018-05-29T05:30:49.844Z,14.98
2018-05-29T05:33:18.234Z,14.70
2018-05-29T05:35:46.618Z,15.15
2018-05-29T05:38:22.506Z,14.27
2018-05-29T05:40:50.121Z,15.63
2018-05-29T05:43:18.497Z,14.23
2018-05-29T05:45:46.942Z,15.43
2018-05-29T05:48:14.551Z,14.15
2018-05-29T05:50:42.193Z,12.88
2018-05-29T05:53:10.578Z,14.05
2018-05-29T05:55:38.968Z,13.65
2018-05-29T05:58:06.542Z,13.60
2018-05-29T06:00:34.128Z,14.50
2018-05-29T06:03:01.746Z,12.57
2018-05-29T06:05:30.174Z,14.60
2018-05-29T06:07:57.776Z,12.43
2018-05-29T06:10:25.426Z,13.73
2018-05-29T06:12:53.035Z,12.90
2018-05-29T06:15:24.409Z,10.98
2018-05-29T06:17:51.965Z,15.25
2018-05-29T06:20:19.590Z,11.20
2018-05-29T06:22:47.248Z,12.37
2018-05-29T06:25:21.522Z,13.38
2018-05-29T06:27:52.286Z,12.52
2018-05-29T06:30:20.670Z,14.25
2018-05-29T06:32:49.072Z,12.60
2018-05-29T06:35:16.767Z,14.52
2018-05-29T06:37:44.383Z,12.93
2018-05-29T06:40:12.006Z,12.20
2018-05-29T06:42:39.623Z,15.02
2018-05-29T06:45:07.380Z,11.70
2018-05-29T06:47:34.884Z,14.52
2018-05-29T06:50:02.726Z,14.75
2018-05-29T06:52:30.421Z,13.43
2018-05-29T06:54:58.026Z,14.27
2018-05-29T06:57:25.651Z,15.30
2018-05-29T06:59:53.256Z,13.77
2018-05-29T07:02:34.928Z,12.80
2018-05-29T07:05:10.100Z,14.25
2018-05-29T07:07:37.728Z,14.60
2018-05-29T07:10:06.140Z,14.68
2018-05-29T07:12:35.721Z,14.38
2018-05-29T07:15:03.372Z,14.57
2018-05-29T07:17:31.736Z,14.68
2018-05-29T07:19:59.465Z,12.77
2018-05-29T07:22:27.031Z,15.80
2018-05-29T07:24:54.687Z,15.23
2018-05-29T07:27:22.367Z,16.48
2018-05-29T07:29:49.918Z,15.20
2018-05-29T07:32:17.544Z,13.40
2018-05-29T07:34:45.172Z,12.23
2018-05-29T07:37:13.604Z,13.82
2018-05-29T07:39:41.261Z,12.00
2018-05-29T07:42:08.922Z,13.07
2018-05-29T07:44:36.513Z,13.57
2018-05-29T07:47:04.090Z,13.20
2018-05-29T07:49:33.258Z,12.77
2018-05-29T07:52:00.934Z,12.27
2018-05-29T07:54:28.511Z,13.50
2018-05-29T07:56:56.896Z,13.18
2018-05-29T07:59:25.281Z,12.02
2018-05-29T08:01:53.729Z,12.52
2018-05-29T08:04:22.145Z,11.82
2018-05-29T08:06:50.525Z,14.00
2018-05-29T08:09:18.940Z,10.27
2018-05-29T08:11:46.545Z,11.98
2018-05-29T08:14:14.945Z,11.93
2018-05-29T08:16:42.572Z,11.68
2018-05-29T08:19:10.159Z,11.75
2018-05-29T08:21:38.518Z,11.23
2018-05-29T08:24:06.852Z,11.35
2018-05-29T08:26:34.463Z,11.38
2018-05-29T08:29:03.134Z,12.96
2018-05-29T08:31:30.776Z,11.60
2018-05-29T08:33:58.395Z,11.07
2018-05-29T08:36:26.782Z,11.05
2018-05-29T08:38:54.371Z,10.37
2018-05-29T08:41:21.953Z,11.43
2018-05-29T08:43:49.546Z,12.40
2018-05-29T08:46:17.225Z,10.60
2018-05-29T08:48:44.904Z,11.02
2018-05-29T08:51:12.504Z,12.45
2018-05-29T08:53:40.128Z,11.18
2018-05-29T08:56:07.750Z,10.75
2018-05-29T08:58:37.014Z,13.32
2018-05-29T09:01:04.606Z,11.05
2018-05-29T09:03:32.968Z,11.65
2018-05-29T09:06:00.600Z,10.73
2018-05-29T09:08:28.226Z,12.02
2018-05-29T09:10:55.864Z,13.23
2018-05-29T09:13:24.250Z,11.57
2018-05-29T09:15:52.634Z,11.65
2018-05-29T09:18:20.990Z,11.60
2018-05-29T09:20:48.607Z,11.23
2018-05-29T09:23:16.211Z,10.30
2018-05-29T09:25:43.836Z,10.82
2018-05-29T09:28:11.468Z,11.35
2018-05-29T09:30:39.095Z,11.50
2018-05-29T09:33:17.978Z,10.63
2018-05-29T09:35:45.600Z,12.10
2018-05-29T09:38:13.988Z,12.73
2018-05-29T09:40:48.993Z,9.95
2018-05-29T09:43:16.628Z,12.52
2018-05-29T09:45:44.255Z,10.77
2018-05-29T09:48:11.888Z,10.75
2018-05-29T09:50:40.326Z,11.32
2018-05-29T09:53:07.974Z,11.00
2018-05-29T09:55:35.532Z,11.75
2018-05-29T09:58:03.136Z,11.73
2018-05-29T10:00:37.773Z,11.55
2018-05-29T10:03:05.410Z,11.68
2018-05-29T10:05:33.010Z,13.10
2018-05-29T10:08:01.406Z,12.70
2018-05-29T10:10:28.982Z,12.32
2018-05-29T10:12:56.628Z,12.18
2018-05-29T10:15:24.220Z,11.93
2018-05-29T10:17:51.808Z,11.40
2018-05-29T10:20:19.432Z,11.32
2018-05-29T10:22:47.030Z,11.95
2018-05-29T10:25:40.639Z,10.50
2018-05-29T10:28:08.208Z,10.90
2018-05-29T10:30:35.864Z,12.02
2018-05-29T10:33:03.488Z,10.32
2018-05-29T10:35:31.869Z,10.85
2018-05-29T10:37:59.462Z,9.43
2018-05-29T10:40:27.089Z,9.45
2018-05-29T10:42:54.736Z,10.25
2018-05-29T10:45:22.340Z,9.32
2018-05-29T10:47:49.960Z,9.43
2018-05-29T10:50:17.571Z,9.07
2018-05-29T10:52:45.170Z,8.73
2018-05-29T10:55:12.770Z,8.60
2018-05-29T10:57:41.150Z,8.55
2018-05-29T11:00:09.519Z,10.40
2018-05-29T11:02:37.934Z,8.40
2018-05-29T11:05:05.534Z,9.55
2018-05-29T11:07:33.152Z,8.30
2018-05-29T11:10:00.820Z,9.43
2018-05-29T11:12:29.367Z,8.13
2018-05-29T11:15:21.610Z,7.28
2018-05-29T11:18:00.168Z,7.12
2018-05-29T11:20:27.784Z,6.82
2018-05-29T11:22:56.168Z,7.45
2018-05-29T11:25:28.205Z,7.10
2018-05-29T11:27:55.822Z,6.35
2018-05-29T11:30:29.524Z,6.57
2018-05-29T11:32:57.148Z,7.70
2018-05-29T11:35:32.104Z,6.50
2018-05-29T11:37:59.665Z,8.75
2018-05-29T11:40:27.254Z,6.72
2018-05-29T11:42:54.898Z,7.70
2018-05-29T11:45:22.521Z,6.70
2018-05-29T11:47:50.124Z,6.80
2018-05-29T11:50:21.521Z,6.43
2018-05-29T11:52:49.260Z,7.10
2018-05-29T11:55:24.192Z,6.97
2018-05-29T11:57:51.792Z,6.60
2018-05-29T12:00:20.155Z,6.37
2018-05-29T12:02:49.248Z,6.12
2018-05-29T12:05:16.804Z,5.55
2018-05-29T12:07:44.452Z,5.68
2018-05-29T12:10:12.051Z,6.07
2018-05-29T12:12:40.432Z,5.50
2018-05-29T12:15:08.810Z,6.68
2018-05-29T12:17:37.169Z,6.68
2018-05-29T12:20:04.760Z,6.43
2018-05-29T12:22:32.392Z,6.97
2018-05-29T12:24:59.991Z,6.95
2018-05-29T12:27:27.565Z,7.00
2018-05-29T12:29:55.185Z,7.37
2018-05-29T12:32:22.755Z,8.77
2018-05-29T12:34:51.112Z,8.10
2018-05-29T12:37:18.753Z,8.13
2018-05-29T12:39:46.340Z,6.93
2018-05-29T12:42:13.972Z,7.30
2018-05-29T12:44:41.557Z,7.65
2018-05-29T12:47:09.194Z,7.43
2018-05-29T12:49:36.865Z,7.20
2018-05-29T12:52:04.499Z,7.53
2018-05-29T12:54:36.211Z,7.82
2018-05-29T12:57:05.613Z,7.87
2018-05-29T12:59:44.709Z,8.70
2018-05-29T13:02:12.331Z,7.57
2018-05-29T13:04:39.954Z,8.32
2018-05-29T13:07:09.055Z,8.27
2018-05-29T13:09:36.925Z,7.47
2018-05-29T13:12:04.517Z,7.65
2018-05-29T13:14:32.152Z,7.47
2018-05-29T13:16:59.773Z,6.95
2018-05-29T13:19:27.396Z,7.00
2018-05-29T13:21:54.978Z,7.50
2018-05-29T13:24:22.578Z,6.37
2018-05-29T13:26:50.176Z,6.85
2018-05-29T13:29:17.806Z,7.03
2018-05-29T13:31:45.400Z,6.43
2018-05-29T13:34:13.001Z,7.20
2018-05-29T13:36:40.611Z,7.43
2018-05-29T13:39:09.002Z,7.20
2018-05-29T13:41:37.331Z,7.60
2018-05-29T13:44:04.924Z,7.43
2018-05-29T13:46:33.322Z,7.78
2018-05-29T13:49:00.911Z,7.35
2018-05-29T13:51:28.553Z,7.40
2018-05-29T13:53:56.124Z,7.30
2018-05-29T13:56:23.757Z,7.72
2018-05-29T13:58:51.422Z,6.40
2018-05-29T14:01:19.043Z,5.68
2018-05-29T14:03:46.638Z,5.78
2018-05-29T14:06:14.256Z,6.22
2018-05-29T14:08:41.821Z,7.28
2018-05-29T14:11:09.453Z,8.57
2018-05-29T14:13:37.037Z,9.23
2018-05-29T14:16:04.648Z,9.25
2018-05-29T14:18:32.264Z,8.63
2018-05-29T14:20:59.902Z,8.90
2018-05-29T14:23:27.868Z,8.63
2018-05-29T14:25:55.493Z,8.50
2018-05-29T14:28:23.075Z,8.63
2018-05-29T14:30:50.706Z,8.07
2018-05-29T14:33:19.111Z,8.98
2018-05-29T14:35:52.949Z,8.30
2018-05-29T14:38:20.549Z,9.18
2018-05-29T14:40:48.866Z,8.07
2018-05-29T14:43:16.432Z,9.15
2018-05-29T14:45:44.028Z,8.80
2018-05-29T14:48:12.053Z,9.48
2018-05-29T14:50:40.530Z,8.57
2018-05-29T14:53:08.093Z,8.07
2018-05-29T14:55:35.729Z,8.25
2018-05-29T14:58:04.092Z,7.03
2018-05-29T15:00:36.260Z,7.20
2018-05-29T15:03:09.439Z,8.05
2018-05-29T15:05:37.071Z,6.47
2018-05-29T15:08:12.014Z,7.18
2018-05-29T15:10:40.590Z,6.37
2018-05-29T15:13:08.187Z,6.05
2018-05-29T15:15:35.795Z,5.97
2018-05-29T15:18:03.401Z,6.00
2018-05-29T15:20:30.994Z,5.70
2018-05-29T15:22:58.645Z,4.87
2018-05-29T15:25:27.041Z,6.13
2018-05-29T15:27:54.695Z,6.62
2018-05-29T15:30:22.333Z,6.15
2018-05-29T15:32:50.785Z,6.40
2018-05-29T15:35:18.417Z,6.90
2018-05-29T15:37:46.057Z,6.22
2018-05-29T15:40:13.661Z,6.40
2018-05-29T15:42:41.324Z,6.37
2018-05-29T15:45:08.945Z,7.07
2018-05-29T15:47:36.573Z,6.37
2018-05-29T15:50:16.931Z,5.80
2018-05-29T15:52:44.571Z,5.97
2018-05-29T15:55:12.193Z,5.85
2018-05-29T15:57:39.902Z,5.87
2018-05-29T16:00:07.541Z,5.93
2018-05-29T16:02:35.174Z,5.95
2018-05-29T16:05:02.741Z,6.07
2018-05-29T16:07:30.349Z,5.60
2018-05-29T16:09:58.877Z,5.40
2018-05-29T16:12:26.475Z,5.20
2018-05-29T16:14:54.081Z,5.57
2018-05-29T16:17:22.462Z,5.53
2018-05-29T16:19:50.873Z,5.40
2018-05-29T16:22:18.528Z,5.80
2018-05-29T16:24:46.149Z,5.97
2018-05-29T16:27:16.632Z,5.93
2018-05-29T16:29:44.285Z,6.32
2018-05-29T16:32:11.933Z,6.53
2018-05-29T16:34:39.584Z,6.62
2018-05-29T16:37:07.187Z,7.55
2018-05-29T16:39:34.805Z,7.10
2018-05-29T16:42:11.212Z,7.45
2018-05-29T16:44:38.822Z,8.33
2018-05-29T16:47:07.181Z,8.27
2018-05-29T16:49:34.813Z,7.70
2018-05-29T16:52:02.437Z,8.10
2018-05-29T16:54:30.051Z,7.67
2018-05-29T16:56:57.651Z,7.60
2018-05-29T16:59:26.049Z,7.27
2018-05-29T17:01:53.717Z,7.10
2018-05-29T17:04:21.342Z,7.00
2018-05-29T17:06:48.974Z,7.87
2018-05-29T17:09:16.677Z,7.33
2018-05-29T17:11:44.321Z,8.20
2018-05-29T17:14:11.956Z,8.57
2018-05-29T17:16:39.563Z,9.43
2018-05-29T17:19:07.945Z,9.10
2018-05-29T17:21:36.347Z,8.80
2018-05-29T17:24:03.953Z,10.80
2018-05-29T17:26:31.587Z,9.50
2018-05-29T17:28:59.185Z,10.50
2018-05-29T17:31:32.765Z,9.70
2018-05-29T17:34:00.327Z,10.23
2018-05-29T17:36:27.961Z,10.00
2018-05-29T17:38:59.397Z,9.73
2018-05-29T17:41:27.011Z,10.90
2018-05-29T17:43:55.392Z,10.90
2018-05-29T17:46:23.027Z,11.20
2018-05-29T17:48:50.685Z,11.50
2018-05-29T17:51:18.317Z,11.40
2018-05-29T17:53:45.922Z,11.47
2018-05-29T17:56:13.520Z,12.13
2018-05-29T17:58:43.879Z,12.10
2018-05-29T18:01:11.481Z,13.37
2018-05-29T18:03:39.145Z,12.20
2018-05-29T18:06:06.802Z,12.90
2018-05-29T18:08:36.368Z,12.07
2018-05-29T18:11:04.017Z,10.43
2018-05-29T18:13:31.609Z,12.23
2018-05-29T18:15:59.225Z,12.77
2018-05-29T18:18:27.579Z,11.87
2018-05-29T18:20:55.197Z,11.90
2018-05-29T18:23:22.838Z,11.70
2018-05-29T18:25:50.442Z,10.87
2018-05-29T18:28:18.029Z,10.63
2018-05-29T18:30:46.409Z,10.53
2018-05-29T18:33:14.063Z,10.47
2018-05-29T18:35:41.685Z,9.77
2018-05-29T18:38:09.322Z,10.20
2018-05-29T18:40:36.955Z,9.73
2018-05-29T18:43:05.374Z,9.33
2018-05-29T18:45:32.968Z,9.97
2018-05-29T18:48:00.605Z,8.73
2018-05-29T18:50:28.245Z,9.40
2018-05-29T18:52:55.859Z,8.57
2018-05-29T18:55:23.519Z,9.37
2018-05-29T18:57:51.155Z,9.73
2018-05-29T19:00:18.759Z,9.30
2018-05-29T19:02:46.375Z,9.87
2018-05-29T19:05:13.979Z,9.13
2018-05-29T19:07:41.597Z,8.93
2018-05-29T19:10:09.201Z,8.50
2018-05-29T19:12:41.386Z,10.03
2018-05-29T19:15:09.753Z,11.00
2018-05-29T19:17:37.385Z,12.30
2018-05-29T19:20:05.030Z,11.73
2018-05-29T19:22:32.619Z,11.23
2018-05-29T19:25:00.193Z,10.93
2018-05-29T19:27:27.801Z,12.07
2018-05-29T19:29:55.451Z,11.97
2018-05-29T19:32:23.043Z,11.23
2018-05-29T19:34:50.637Z,12.10
2018-05-29T19:37:41.906Z,11.63
2018-05-29T19:40:09.561Z,11.37
2018-05-29T19:42:37.197Z,11.53
2018-05-29T19:45:04.815Z,11.00
2018-05-29T19:47:35.839Z,12.73
2018-05-29T19:50:04.437Z,12.87
2018-05-29T19:52:32.056Z,12.47
2018-05-29T19:54:59.696Z,10.80
2018-05-29T19:57:27.308Z,13.73
2018-05-29T19:59:58.208Z,12.97
2018-05-29T20:02:25.849Z,12.50
2018-05-29T20:04:54.247Z,12.40
2018-05-29T20:07:21.847Z,12.80
2018-05-29T20:09:49.457Z,12.70
2018-05-29T20:12:17.881Z,13.13
2018-05-29T20:14:46.394Z,12.97
2018-05-29T20:17:14.037Z,11.93
2018-05-29T20:19:42.647Z,11.70
2018-05-29T20:22:16.854Z,10.40
2018-05-29T20:24:45.224Z,13.80
2018-05-29T20:27:12.822Z,10.43
2018-05-29T20:29:41.215Z,11.47
2018-05-29T20:32:08.803Z,12.20
2018-05-29T20:34:39.663Z,12.20
2018-05-29T20:37:08.071Z,11.97
2018-05-29T20:39:36.763Z,11.30
2018-05-29T20:42:05.139Z,13.27
2018-05-29T20:44:33.513Z,13.17
2018-05-29T20:47:01.893Z,12.50
2018-05-29T20:49:30.301Z,11.13
2018-05-29T20:51:57.949Z,12.07
2018-05-29T20:54:25.528Z,13.07
2018-05-29T20:56:53.140Z,11.10
2018-05-29T20:59:20.963Z,12.30
2018-05-29T21:01:48.587Z,14.73
2018-05-29T21:04:17.020Z,14.13
2018-05-29T21:06:52.389Z,12.67
2018-05-29T21:09:20.001Z,12.97
2018-05-29T21:11:47.649Z,12.27
2018-05-29T21:14:15.196Z,13.00
2018-05-29T21:16:43.933Z,13.10
2018-05-29T21:19:11.514Z,13.90
2018-05-29T21:21:39.117Z,13.30
2018-05-29T21:24:06.745Z,12.93
2018-05-29T21:26:35.119Z,14.67
2018-05-29T21:29:02.781Z,14.00
2018-05-29T21:31:30.420Z,12.50
2018-05-29T21:33:58.064Z,14.17
2018-05-29T21:36:25.682Z,13.57
2018-05-29T21:38:54.065Z,13.30
2018-05-29T21:41:22.458Z,13.10
2018-05-29T21:43:50.071Z,14.60
2018-05-29T21:46:36.180Z,13.20
2018-05-29T21:49:03.738Z,13.87
2018-05-29T21:51:31.368Z,13.47
2018-05-29T21:53:59.018Z,12.07
2018-05-29T21:56:26.632Z,11.53
2018-05-29T21:59:01.010Z,13.73
2018-05-29T22:01:30.578Z,14.93
2018-05-29T22:04:04.045Z,15.13
2018-05-29T22:06:31.656Z,14.17
2018-05-29T22:08:59.261Z,14.80
2018-05-29T22:11:26.904Z,11.60
2018-05-29T22:13:54.540Z,13.90
2018-05-29T22:16:22.158Z,14.30
2018-05-29T22:18:49.812Z,13.37
2018-05-29T22:21:18.154Z,13.60
2018-05-29T22:23:45.776Z,16.23
2018-05-29T22:26:13.408Z,15.07
2018-05-29T22:28:40.964Z,16.03
2018-05-29T22:31:09.330Z,15.20
2018-05-29T22:33:36.982Z,14.87
2018-05-29T22:36:04.615Z,15.80
2018-05-29T22:38:32.238Z,15.00
2018-05-29T22:40:59.792Z,17.27
2018-05-29T22:43:27.436Z,15.00
2018-05-29T22:45:55.011Z,16.60
2018-05-29T22:48:22.676Z,12.07
2018-05-29T22:50:50.277Z,12.70
2018-05-29T22:53:17.876Z,13.13
2018-05-29T22:55:45.497Z,12.90
2018-05-29T22:58:13.070Z,13.70
2018-05-29T23:00:40.696Z,12.33
2018-05-29T23:03:08.351Z,14.43
2018-05-29T23:05:36.741Z,14.00
2018-05-29T23:08:08.389Z,12.83
2018-05-29T23:10:36.837Z,15.90
2018-05-29T23:13:04.593Z,13.27
2018-05-29T23:15:32.227Z,15.13
2018-05-29T23:17:59.886Z,12.90
2018-05-29T23:20:27.546Z,13.00
2018-05-29T23:22:55.202Z,12.50
2018-05-29T23:25:22.795Z,13.70
2018-05-29T23:27:50.493Z,13.13
2018-05-29T23:30:18.096Z,13.43
2018-05-29T23:32:45.748Z,14.63
2018-05-29T23:35:13.318Z,14.77
2018-05-29T23:37:40.942Z,13.53
2018-05-29T23:40:09.336Z,14.17
2018-05-29T23:42:36.915Z,14.13
2018-05-29T23:45:04.547Z,14.23
2018-05-29T23:47:32.143Z,15.57
2018-05-29T23:49:59.791Z,16.70
2018-05-29T23:52:27.486Z,17.83
2018-05-29T23:54:55.066Z,17.47
2018-05-29T23:57:22.676Z,15.20
2018-05-29T23:59:50.314Z,17.07
